Time;durP1;ratioP1;P1;durP2;ratioP2;P2;SDS_P1;SDS_P2;PMS_P1;PMS_P2;Temp;Humidity;BMP_temperature;BMP_pressure;BME280_temperature;BME280_humidity;BME280_pressure;Samples;Min_cycle;Max_cycle;Signal;HPM_P1;HPM_P2
2023/01/11 00:01:06;;;;;;;10.63;4.87;;;9.50;99.90;;;;;;5072990;28;20016;-84
2023/01/11 00:03:33;;;;;;;14.73;4.90;;;9.60;99.90;;;;;;5072711;28;20134;-85
2023/01/11 00:05:59;;;;;;;7.20;3.90;;;9.60;99.90;;;;;;5073993;28;20024;-82
2023/01/11 00:08:26;;;;;;;7.50;3.50;;;9.60;99.90;;;;;;5056286;28;20017;-85
2023/01/11 00:10:53;;;;;;;9.73;4.13;;;9.70;99.90;;;;;;5072713;28;20385;-85
2023/01/11 00:13:18;;;;;;;9.20;4.23;;;9.70;99.90;;;;;;5072639;28;20096;-84
2023/01/11 00:15:47;;;;;;;7.70;3.73;;;9.70;99.90;;;;;;5073807;28;20104;-83
2023/01/11 00:18:12;;;;;;;11.50;4.10;;;9.80;99.90;;;;;;5072795;28;20047;-85
2023/01/11 00:20:39;;;;;;;7.23;3.60;;;9.80;99.90;;;;;;5072184;28;20417;-83
2023/01/11 00:23:05;;;;;;;11.80;4.43;;;9.80;99.90;;;;;;5072703;28;20484;-83
2023/01/11 00:25:31;;;;;;;9.13;3.70;;;9.80;99.90;;;;;;5055782;28;20045;-85
2023/01/11 00:27:56;;;;;;;10.10;4.00;;;9.90;99.90;;;;;;5055990;28;20030;-84
2023/01/11 00:30:22;;;;;;;6.60;3.77;;;9.90;99.90;;;;;;5055899;28;20067;-85
2023/01/11 00:32:48;;;;;;;9.37;3.93;;;9.90;99.90;;;;;;5073661;28;20056;-84
2023/01/11 00:35:14;;;;;;;7.57;3.77;;;9.90;99.90;;;;;;5055499;28;20139;-83
2023/01/11 00:37:40;;;;;;;6.03;3.37;;;9.90;99.90;;;;;;5055469;28;20025;-84
2023/01/11 00:40:06;;;;;;;8.13;4.07;;;9.90;99.90;;;;;;5071991;28;20025;-84
2023/01/11 00:48:03;;;;;;;6.90;3.35;;;10.00;99.90;;;;;;5072774;28;20039;-84
2023/01/11 00:50:31;;;;;;;5.83;3.30;;;10.00;99.90;;;;;;5073506;28;20515;-85
2023/01/11 00:52:58;;;;;;;7.57;3.67;;;10.00;99.90;;;;;;5071995;28;20051;-85
2023/01/11 00:55:25;;;;;;;8.50;3.67;;;10.00;99.90;;;;;;5071949;28;20017;-84
2023/01/11 00:57:51;;;;;;;6.33;3.60;;;10.00;99.90;;;;;;5071983;28;20017;-85
2023/01/11 01:00:19;;;;;;;7.53;3.00;;;10.00;99.90;;;;;;5071944;28;20107;-84
2023/01/11 01:02:45;;;;;;;7.20;3.03;;;10.00;99.90;;;;;;5072080;28;20016;-85
2023/01/11 01:05:11;;;;;;;12.63;4.00;;;10.10;99.90;;;;;;5055336;28;20397;-84
2023/01/11 01:07:37;;;;;;;6.63;3.20;;;10.10;99.90;;;;;;5073160;28;20021;-84
2023/01/11 01:10:03;;;;;;;6.63;2.90;;;10.10;99.90;;;;;;5055710;28;20074;-84
2023/01/11 01:15:13;;;;;;;10.15;3.95;;;10.10;99.90;;;;;;5073495;28;20039;-83
2023/01/11 01:17:39;;;;;;;9.03;3.43;;;10.10;99.90;;;;;;5071728;28;20021;-85
2023/01/11 01:20:05;;;;;;;5.17;3.17;;;10.10;99.90;;;;;;5055153;28;20029;-84
2023/01/11 01:22:31;;;;;;;8.03;3.03;;;10.10;99.90;;;;;;5055122;28;20033;-84
2023/01/11 01:24:56;;;;;;;5.93;3.07;;;10.20;99.90;;;;;;5071741;28;20041;-84
2023/01/11 01:27:22;;;;;;;6.07;2.63;;;10.20;99.90;;;;;;5055436;28;20028;-78
2023/01/11 01:29:48;;;;;;;5.80;3.03;;;10.20;99.90;;;;;;5055327;28;20037;-79
2023/01/11 01:32:13;;;;;;;6.67;2.70;;;10.20;99.90;;;;;;5057561;28;20078;-83
2023/01/11 01:34:39;;;;;;;6.63;3.00;;;10.20;99.90;;;;;;5075644;28;20430;-85
2023/01/11 01:37:06;;;;;;;4.10;2.30;;;10.20;99.90;;;;;;5076133;28;20024;-83
2023/01/11 01:39:32;;;;;;;6.47;2.50;;;10.20;99.90;;;;;;5075499;28;20453;-83
2023/01/11 01:41:58;;;;;;;7.63;2.47;;;10.30;99.90;;;;;;5075618;28;20052;-84
2023/01/11 01:44:51;;;;;;;7.60;3.03;;;10.30;99.90;;;;;;5076940;28;20024;-83
2023/01/11 01:47:20;;;;;;;3.77;2.03;;;10.30;99.90;;;;;;5075487;28;20028;-85
2023/01/11 01:49:46;;;;;;;6.50;2.57;;;10.30;99.90;;;;;;5075604;28;20040;-83
2023/01/11 01:52:12;;;;;;;6.13;2.90;;;10.30;99.90;;;;;;5058618;28;20059;-83
2023/01/11 01:54:42;;;;;;;5.57;3.10;;;10.30;99.90;;;;;;5058796;28;20412;-83
2023/01/11 01:57:21;;;;;;;6.57;3.20;;;10.30;99.90;;;;;;5075371;28;20032;-84
2023/01/11 01:59:50;;;;;;;5.60;3.13;;;10.30;99.90;;;;;;5074867;28;20024;-83
2023/01/11 02:02:18;;;;;;;4.70;2.63;;;10.30;99.90;;;;;;5075057;28;20472;-83
2023/01/11 02:04:47;;;;;;;6.20;3.50;;;10.30;99.90;;;;;;5058713;28;20020;-83
2023/01/11 02:07:24;;;;;;;6.40;3.17;;;10.30;99.90;;;;;;5092101;28;20112;-84
2023/01/11 02:10:04;;;;;;;6.23;3.20;;;10.30;99.90;;;;;;5075056;28;20028;-84
2023/01/11 02:12:33;;;;;;;6.80;3.20;;;10.30;99.90;;;;;;5074902;28;20059;-84
2023/01/11 02:15:01;;;;;;;6.83;3.20;;;10.30;99.90;;;;;;5074905;28;20025;-82
2023/01/11 02:17:26;;;;;;;5.90;3.40;;;10.30;99.90;;;;;;5058586;28;20028;-83
2023/01/11 02:20:01;;;;;;;4.43;3.20;;;10.30;99.90;;;;;;5058179;28;20434;-83
2023/01/11 02:22:48;;;;;;;5.70;3.30;;;10.30;99.90;;;;;;5075927;28;20017;-82
2023/01/11 02:25:14;;;;;;;7.57;3.47;;;10.30;99.90;;;;;;5075221;28;20115;-83
2023/01/11 02:27:49;;;;;;;7.77;4.00;;;10.30;99.90;;;;;;5075615;28;20481;-83
2023/01/11 02:30:36;;;;;;;7.77;3.47;;;10.40;99.90;;;;;;5075433;28;20029;-84
2023/01/11 02:33:10;;;;;;;6.80;3.20;;;10.30;99.90;;;;;;5075179;28;20388;-82
2023/01/11 02:36:06;;;;;;;7.23;4.33;;;10.30;99.90;;;;;;5075563;28;20497;-82
2023/01/11 02:38:35;;;;;;;6.57;3.70;;;10.30;99.90;;;;;;5075924;28;20039;-82
2023/01/11 02:41:22;;;;;;;5.87;3.70;;;10.40;99.90;;;;;;5074437;28;20124;-83
2023/01/11 02:46:58;;;;;;;5.37;3.73;;;10.40;99.90;;;;;;5076005;28;20046;-81
2023/01/11 02:49:28;;;;;;;7.90;4.40;;;10.30;99.90;;;;;;5074461;28;20032;-83
2023/01/11 02:52:19;;;;;;;6.60;3.83;;;10.50;99.90;;;;;;5074299;28;20123;-83
2023/01/11 02:54:52;;;;;;;9.47;4.13;;;10.40;99.90;;;;;;5071088;28;20074;-83
2023/01/11 02:57:19;;;;;;;5.70;4.03;;;10.50;99.90;;;;;;5074185;28;20081;-82
2023/01/11 02:59:48;;;;;;;7.70;4.30;;;10.50;99.90;;;;;;5074143;28;20028;-83
2023/01/11 03:02:15;;;;;;;7.60;4.13;;;10.50;99.90;;;;;;5057848;28;20389;-82
2023/01/11 03:04:41;;;;;;;7.87;4.47;;;10.50;99.90;;;;;;5074135;28;20385;-82
2023/01/11 03:07:26;;;;;;;8.10;4.47;;;10.50;99.90;;;;;;5074164;28;20036;-82
2023/01/11 03:10:10;;;;;;;;;;;10.50;99.90;;;;;;5074320;28;20029;-83
2023/01/11 03:13:04;;;;;;;7.05;4.20;;;10.50;99.90;;;;;;5073938;28;19912;-83
2023/01/11 03:16:02;;;;;;;6.50;4.25;;;10.50;99.90;;;;;;5073823;28;20021;-82
2023/01/11 03:18:46;;;;;;;7.10;4.10;;;10.60;99.90;;;;;;5055199;28;20079;-83
2023/01/11 03:21:33;;;;;;;7.53;4.20;;;10.60;99.90;;;;;;5073490;28;20029;-83
2023/01/11 03:24:10;;;;;;;7.80;4.77;;;10.60;99.90;;;;;;5074754;28;20025;-83
2023/01/11 03:26:51;;;;;;;10.10;5.03;;;10.70;99.90;;;;;;5074725;28;20058;-82
2023/01/11 03:29:46;;;;;;;9.43;4.37;;;10.60;99.90;;;;;;5073521;28;20035;-83
2023/01/11 03:32:34;;;;;;;6.23;4.23;;;10.80;99.90;;;;;;5073496;28;20025;-83
2023/01/11 03:35:15;;;;;;;8.77;4.17;;;10.70;99.90;;;;;;5073303;28;20166;-82
2023/01/11 03:37:51;;;;;;;7.17;4.10;;;10.70;99.90;;;;;;5073369;28;20032;-83
2023/01/11 03:40:39;;;;;;;8.03;4.27;;;10.80;99.90;;;;;;5073243;28;20400;-82
2023/01/11 03:43:11;;;;;;;9.50;3.95;;;10.80;99.90;;;;;;5073380;28;20020;-82
2023/01/11 03:45:40;;;;;;;6.37;4.43;;;10.80;99.90;;;;;;5073142;28;20091;-82
2023/01/11 03:48:10;;;;;;;7.30;3.97;;;10.80;99.90;;;;;;5074593;28;20464;-83
2023/01/11 03:50:36;;;;;;;7.57;4.57;;;10.80;99.90;;;;;;5073285;28;20500;-82
2023/01/11 03:53:06;;;;;;;6.95;3.90;;;10.90;99.90;;;;;;5073130;28;20060;-81
2023/01/11 03:55:39;;;;;;;8.77;4.85;;;10.90;99.90;;;;;;5072484;28;20021;-82
2023/01/11 03:58:07;;;;;;;7.05;3.97;;;10.90;99.90;;;;;;5073131;28;20050;-82
2023/01/11 04:00:35;;;;;;;6.30;3.77;;;10.90;99.90;;;;;;5072944;28;20025;-82
2023/01/11 04:03:01;;;;;;;9.93;3.70;;;10.90;99.90;;;;;;5073189;28;20029;-83
2023/01/11 04:05:27;;;;;;;8.07;4.40;;;10.90;99.90;;;;;;5056405;28;20020;-82
2023/01/11 04:07:53;;;;;;;6.90;4.00;;;10.90;99.90;;;;;;5056734;28;20021;-82
2023/01/11 04:10:19;;;;;;;7.32;3.72;;;11.00;99.90;;;;;;5072868;28;20103;-82
2023/01/11 04:12:48;;;;;;;8.07;3.77;;;11.00;99.90;;;;;;5056079;28;20063;-83
2023/01/11 04:15:15;;;;;;;7.00;4.10;;;11.00;99.90;;;;;;5055992;28;20025;-82
2023/01/11 04:17:41;;;;;;;8.03;4.00;;;11.00;99.90;;;;;;5056426;28;20503;-82
2023/01/11 04:20:11;;;;;;;6.60;3.40;;;11.10;99.90;;;;;;5072396;28;20380;-82
2023/01/11 04:22:37;;;;;;;5.57;3.57;;;11.10;99.90;;;;;;5072361;28;20036;-82
2023/01/11 04:25:03;;;;;;;7.57;3.90;;;11.10;99.90;;;;;;5073517;28;20481;-82
2023/01/11 04:27:29;;;;;;;7.85;3.83;;;11.10;99.90;;;;;;5073596;28;20017;-82
2023/01/11 04:29:54;;;;;;;6.35;3.47;;;11.10;99.90;;;;;;5072327;28;20024;-82
2023/01/11 04:32:20;;;;;;;7.37;4.47;;;11.10;99.90;;;;;;5055587;28;20097;-82
2023/01/11 04:34:45;;;;;;;8.38;4.90;;;11.10;99.90;;;;;;5055562;28;20028;-83
2023/01/11 04:37:11;;;;;;;7.75;4.53;;;11.10;99.90;;;;;;5055703;28;20021;-83
2023/01/11 04:39:37;;;;;;;7.95;4.63;;;11.20;99.90;;;;;;5055471;28;20036;-82
2023/01/11 04:42:18;;;;;;;10.60;5.90;;;11.20;99.90;;;;;;5073442;28;20028;-82
2023/01/11 04:44:48;;;;;;;10.88;5.47;;;11.20;99.90;;;;;;5072207;28;20029;-83
2023/01/11 04:47:15;;;;;;;10.65;6.05;;;11.20;99.90;;;;;;5055642;28;20112;-82
2023/01/11 04:49:41;;;;;;;8.70;5.30;;;11.20;99.90;;;;;;5072431;28;20027;-83
2023/01/11 04:52:09;;;;;;;10.25;5.55;;;11.20;99.90;;;;;;5072174;28;20020;-82
2023/01/11 04:54:34;;;;;;;9.50;6.00;;;11.20;99.90;;;;;;5071982;28;20028;-83
2023/01/11 04:57:00;;;;;;;9.65;6.22;;;11.20;99.90;;;;;;5072315;28;20177;-83
2023/01/11 04:59:26;;;;;;;9.20;5.72;;;11.20;99.90;;;;;;5055456;28;20021;-82
2023/01/11 05:01:51;;;;;;;11.98;7.40;;;11.20;99.90;;;;;;5071942;28;20074;-83
2023/01/11 05:04:17;;;;;;;12.73;8.25;;;11.30;99.90;;;;;;5055428;28;20810;-82
2023/01/11 05:06:43;;;;;;;12.95;7.72;;;11.30;99.90;;;;;;5071830;28;20033;-83
2023/01/11 05:09:13;;;;;;;12.90;8.00;;;11.30;99.90;;;;;;5055162;28;20052;-82
2023/01/11 05:11:38;;;;;;;15.00;9.67;;;11.30;99.90;;;;;;5071873;28;20020;-85
2023/01/11 05:14:04;;;;;;;13.13;7.55;;;11.30;99.90;;;;;;5055300;28;20031;-84
2023/01/11 05:16:30;;;;;;;18.23;10.55;;;11.30;99.90;;;;;;5088847;28;20024;-83
2023/01/11 05:18:57;;;;;;;18.83;9.77;;;11.30;99.90;;;;;;5055319;28;20025;-84
2023/01/11 05:21:26;;;;;;;15.85;10.20;;;11.30;99.90;;;;;;5071726;28;20407;-83
2023/01/11 05:23:52;;;;;;;15.82;9.32;;;11.30;99.90;;;;;;5071519;28;20070;-85
2023/01/11 05:26:22;;;;;;;16.33;10.52;;;11.30;99.90;;;;;;5054968;28;20480;-84
2023/01/11 05:28:48;;;;;;;16.10;9.85;;;11.30;99.90;;;;;;5071673;28;20532;-83
2023/01/11 05:31:14;;;;;;;19.73;10.40;;;11.30;99.90;;;;;;5071719;28;20388;-83
2023/01/11 05:33:40;;;;;;;17.15;10.15;;;11.30;99.90;;;;;;5055383;28;20141;-84
2023/01/11 05:36:10;;;;;;;21.85;10.93;;;11.30;99.90;;;;;;5071577;28;20075;-85
2023/01/11 05:38:36;;;;;;;21.33;11.40;;;11.30;99.90;;;;;;5071617;28;20112;-83
2023/01/11 05:41:05;;;;;;;21.15;12.10;;;11.30;99.90;;;;;;5054958;28;20123;-83
2023/01/11 05:43:31;;;;;;;25.63;11.27;;;11.30;99.90;;;;;;5071809;28;20025;-82
2023/01/11 05:45:58;;;;;;;18.05;10.70;;;11.30;99.90;;;;;;5072691;28;20111;-86
2023/01/11 05:48:24;;;;;;;17.92;10.32;;;11.30;99.90;;;;;;5061941;28;20025;-82
2023/01/11 05:50:51;;;;;;;23.30;11.82;;;11.30;99.90;;;;;;5051308;28;20028;-83
2023/01/11 05:53:18;;;;;;;20.35;10.30;;;11.30;99.90;;;;;;5066191;28;20044;-83
2023/01/11 05:55:57;;;;;;;27.73;11.10;;;11.20;99.90;;;;;;5043827;28;20025;-82
2023/01/11 05:58:25;;;;;;;28.33;9.43;;;11.20;99.90;;;;;;5048638;28;20112;-83
2023/01/11 06:00:53;;;;;;;22.30;9.57;;;11.20;99.90;;;;;;5053874;28;20032;-84
2023/01/11 06:03:19;;;;;;;22.60;9.85;;;11.20;99.90;;;;;;5049569;28;20040;-83
2023/01/11 06:05:45;;;;;;;15.95;8.00;;;11.20;99.90;;;;;;5048682;28;20033;-83
2023/01/11 06:08:11;;;;;;;23.35;8.55;;;11.20;99.90;;;;;;5033489;28;20025;-84
2023/01/11 06:10:37;;;;;;;22.60;8.38;;;11.20;99.90;;;;;;5052069;28;20029;-85
2023/01/11 06:15:47;;;;;;;25.38;9.00;;;11.10;99.90;;;;;;5050533;28;20441;-86
2023/01/11 06:18:13;;;;;;;28.45;8.68;;;11.10;99.90;;;;;;5035939;28;20021;-84
2023/01/11 06:20:39;;;;;;;24.52;8.05;;;11.00;99.90;;;;;;5054999;28;20028;-85
2023/01/11 06:23:05;;;;;;;24.80;7.80;;;11.00;99.90;;;;;;5037499;28;20021;-81
2023/01/11 06:25:31;;;;;;;22.50;7.45;;;10.90;99.90;;;;;;5038269;28;20132;-85
2023/01/11 06:27:58;;;;;;;25.90;6.15;;;10.90;99.90;;;;;;5056104;28;20028;-84
2023/01/11 06:30:27;;;;;;;24.83;6.20;;;10.90;99.90;;;;;;5055188;28;20021;-86
2023/01/11 06:32:52;;;;;;;22.97;5.83;;;10.80;99.90;;;;;;5054854;28;20131;-85
2023/01/11 06:35:18;;;;;;;27.73;5.03;;;10.80;99.90;;;;;;5038310;28;20052;-83
2023/01/11 06:37:44;;;;;;;22.17;4.13;;;10.80;99.90;;;;;;5054860;28;20103;-86
2023/01/11 06:40:10;;;;;;;22.90;3.77;;;10.70;99.90;;;;;;5054690;28;20478;-85
2023/01/11 06:42:36;;;;;;;24.37;4.10;;;10.70;99.90;;;;;;5037883;28;20021;-85
2023/01/11 06:45:01;;;;;;;29.80;3.97;;;10.70;99.90;;;;;;5054777;28;20021;-84
2023/01/11 06:47:27;;;;;;;24.43;3.73;;;10.70;99.90;;;;;;5055317;28;20144;-86
2023/01/11 06:49:53;;;;;;;24.60;3.60;;;10.70;99.90;;;;;;5054872;28;20033;-85
2023/01/11 06:52:18;;;;;;;21.27;4.07;;;10.60;99.90;;;;;;5038273;28;20025;-79
2023/01/11 06:54:44;;;;;;;25.47;3.40;;;10.60;99.90;;;;;;5054636;28;20025;-80
2023/01/11 06:57:10;;;;;;;29.87;4.37;;;10.60;99.90;;;;;;5054189;28;20029;-79
2023/01/11 06:59:38;;;;;;;30.67;3.70;;;10.60;99.90;;;;;;5037283;28;20029;-79
2023/01/11 07:02:04;;;;;;;28.13;3.70;;;10.50;99.90;;;;;;5037622;28;20029;-78
2023/01/11 07:04:30;;;;;;;26.90;3.70;;;10.50;99.90;;;;;;5055615;28;20020;-79
2023/01/11 07:06:56;;;;;;;32.10;4.13;;;10.50;99.90;;;;;;5037353;28;20021;-79
2023/01/11 07:09:22;;;;;;;23.87;3.50;;;10.50;99.90;;;;;;5037500;28;20025;-79
2023/01/11 07:11:48;;;;;;;21.95;2.80;;;10.50;99.90;;;;;;5036923;28;20432;-79
2023/01/11 07:14:14;;;;;;;26.73;4.13;;;10.40;99.90;;;;;;5037138;28;20029;-79
2023/01/11 07:16:40;;;;;;;23.47;3.20;;;10.40;99.90;;;;;;5037192;28;20029;-79
2023/01/11 07:19:06;;;;;;;30.00;3.53;;;10.40;99.90;;;;;;5053736;28;20036;-79
2023/01/11 07:21:31;;;;;;;19.67;2.83;;;10.30;99.90;;;;;;5054737;28;20021;-77
2023/01/11 07:23:57;;;;;;;33.77;3.83;;;10.40;99.90;;;;;;5053377;28;20422;-79
2023/01/11 07:26:25;;;;;;;21.27;2.83;;;10.30;99.90;;;;;;5053729;28;20449;-79
2023/01/11 07:28:50;;;;;;;24.30;3.23;;;10.30;99.90;;;;;;5052258;28;20087;-79
2023/01/11 07:31:16;;;;;;;25.87;3.07;;;10.30;99.90;;;;;;5037094;28;20025;-79
2023/01/11 07:33:42;;;;;;;21.13;2.57;;;10.20;99.90;;;;;;5036672;28;20079;-79
2023/01/11 07:36:07;;;;;;;25.20;3.87;;;10.20;99.90;;;;;;5053421;28;20090;-79
2023/01/11 07:38:33;;;;;;;23.23;3.33;;;10.20;99.90;;;;;;5053496;28;20451;-80
2023/01/11 07:40:59;;;;;;;25.07;3.53;;;10.20;99.90;;;;;;5037070;28;20104;-79
2023/01/11 07:43:25;;;;;;;22.60;3.70;;;10.20;99.90;;;;;;5052030;28;20063;-79
2023/01/11 07:45:52;;;;;;;18.73;3.70;;;10.10;99.90;;;;;;5042040;28;20413;-79
2023/01/11 07:48:23;;;;;;;21.27;3.57;;;10.10;99.90;;;;;;5033404;28;20117;-79
2023/01/11 07:50:51;;;;;;;30.97;4.10;;;10.10;99.90;;;;;;5051078;28;20017;-79
2023/01/11 07:53:17;;;;;;;23.70;2.77;;;10.10;99.90;;;;;;5035988;28;20109;-78
2023/01/11 07:55:43;;;;;;;25.67;3.73;;;10.00;99.90;;;;;;5035969;28;20039;-78
2023/01/11 07:58:13;;;;;;;28.60;3.13;;;10.00;99.90;;;;;;5052516;28;20037;-78
2023/01/11 08:00:39;;;;;;;15.00;2.67;;;10.00;99.90;;;;;;5053315;28;20017;-79
2023/01/11 08:03:06;;;;;;;29.87;4.10;;;9.90;99.90;;;;;;5052735;28;20032;-79
2023/01/11 08:05:31;;;;;;;24.80;3.77;;;9.90;99.90;;;;;;5069416;28;20025;-78
2023/01/11 08:07:57;;;;;;;26.47;4.00;;;9.90;99.90;;;;;;5069550;28;20025;-78
2023/01/11 08:10:23;;;;;;;21.17;3.10;;;9.80;99.90;;;;;;5086388;28;20028;-80
2023/01/11 08:15:34;;;;;;;;;;;9.80;99.90;;;;;;5054510;28;20122;-80
2023/01/11 08:18:03;;;;;;;26.37;3.73;;;9.70;99.90;;;;;;5052414;28;19909;-80
2023/01/11 08:20:28;;;;;;;25.60;2.83;;;9.70;99.90;;;;;;5051249;28;20024;-79
2023/01/11 08:22:55;;;;;;;21.63;3.07;;;9.70;99.90;;;;;;5060513;28;20104;-80
2023/01/11 08:25:21;;;;;;;22.10;3.17;;;9.60;99.90;;;;;;5053289;28;20037;-79
2023/01/11 08:27:47;;;;;;;20.77;3.87;;;9.60;99.90;;;;;;5052437;28;20473;-80
2023/01/11 08:30:12;;;;;;;23.80;3.30;;;9.60;99.90;;;;;;5054199;28;20040;-80
2023/01/11 08:32:38;;;;;;;23.63;3.23;;;9.60;99.90;;;;;;5036067;28;20074;-80
2023/01/11 08:35:05;;;;;;;13.57;2.23;;;9.60;99.90;;;;;;5054442;28;20381;-80
2023/01/11 08:37:30;;;;;;;17.23;2.17;;;9.60;99.90;;;;;;5052679;28;20073;-79
2023/01/11 08:39:57;;;;;;;24.17;2.73;;;9.60;99.90;;;;;;5035356;28;20037;-80
2023/01/11 08:42:22;;;;;;;24.10;2.90;;;9.60;99.90;;;;;;5035990;28;20021;-80
2023/01/11 08:44:48;;;;;;;16.73;2.70;;;9.60;99.90;;;;;;5035664;28;20085;-80
2023/01/11 08:47:13;;;;;;;20.73;2.93;;;9.60;99.90;;;;;;5035869;28;20440;-80
2023/01/11 08:49:41;;;;;;;28.03;4.00;;;9.60;99.90;;;;;;5053535;28;20484;-80
2023/01/11 08:52:12;;;;;;;18.70;2.93;;;9.60;99.90;;;;;;5051238;28;20110;-80
2023/01/11 08:54:38;;;;;;;24.27;3.53;;;9.60;99.90;;;;;;5053582;28;20588;-80
2023/01/11 08:57:04;;;;;;;23.40;3.80;;;9.60;99.90;;;;;;5085727;28;20024;-79
2023/01/11 08:59:29;;;;;;;31.83;3.97;;;9.50;99.90;;;;;;5068761;28;20128;-79
2023/01/11 09:01:55;;;;;;;23.80;3.10;;;9.60;99.90;;;;;;5085756;28;20017;-80
2023/01/11 09:04:21;;;;;;;21.90;3.60;;;9.50;99.90;;;;;;5035550;28;20070;-80
2023/01/11 09:06:46;;;;;;;26.27;3.33;;;9.50;99.90;;;;;;5068864;28;20525;-79
2023/01/11 09:09:12;;;;;;;24.20;3.23;;;9.50;99.90;;;;;;5068814;28;20457;-79
2023/01/11 09:11:52;;;;;;;20.57;2.97;;;9.50;99.90;;;;;;5068654;28;20124;-79
2023/01/11 09:14:18;;;;;;;16.73;2.30;;;9.50;99.90;;;;;;5037548;28;20036;-79
2023/01/11 09:16:44;;;;;;;28.17;3.97;;;9.50;99.90;;;;;;5053652;28;20033;-80
2023/01/11 09:19:09;;;;;;;28.83;3.07;;;9.50;99.90;;;;;;5069037;28;20029;-79
2023/01/11 09:21:35;;;;;;;23.07;3.00;;;9.40;99.90;;;;;;5068743;28;20025;-80
2023/01/11 09:24:02;;;;;;;21.07;2.73;;;9.40;99.90;;;;;;5069051;28;20489;-79
2023/01/11 09:26:28;;;;;;;17.83;2.77;;;9.40;99.90;;;;;;5069403;28;20037;-79
2023/01/11 09:28:54;;;;;;;29.73;3.37;;;9.40;99.90;;;;;;5081612;28;20018;-80
2023/01/11 09:31:20;;;;;;;22.67;2.90;;;9.40;99.90;;;;;;5052830;28;20029;-79
2023/01/11 09:33:45;;;;;;;25.20;3.37;;;9.30;99.90;;;;;;5064140;28;20033;-80
2023/01/11 09:36:13;;;;;;;24.93;3.43;;;9.30;99.90;;;;;;5054501;28;20487;-79
2023/01/11 09:38:40;;;;;;;22.17;3.17;;;9.30;99.90;;;;;;5052896;28;20481;-79
2023/01/11 09:41:27;;;;;;;22.30;2.90;;;9.20;99.90;;;;;;5036273;28;20091;-80
2023/01/11 09:44:13;;;;;;;25.93;3.20;;;9.30;99.90;;;;;;5051515;28;20055;-81
2023/01/11 09:46:41;;;;;;;20.10;3.33;;;9.30;99.90;;;;;;5050825;28;20049;-80
2023/01/11 09:49:15;;;;;;;24.83;3.80;;;9.30;99.90;;;;;;5049999;28;20375;-80
2023/01/11 09:51:42;;;;;;;;;;;9.20;99.90;;;;;;5051482;28;20116;-80
2023/01/11 09:54:14;;;;;;;17.03;2.60;;;9.20;99.90;;;;;;5037848;28;19936;-80
2023/01/11 09:56:51;;;;;;;25.03;4.07;;;9.20;99.90;;;;;;5055748;28;20016;-82
2023/01/11 09:59:33;;;;;;;17.57;2.50;;;9.40;99.90;;;;;;5054745;28;20029;-80
2023/01/11 10:02:13;;;;;;;20.97;3.27;;;9.60;99.90;;;;;;5055330;28;20017;-84
2023/01/11 10:05:01;;;;;;;23.33;3.00;;;9.70;99.90;;;;;;5054890;28;20080;-84
2023/01/11 10:07:53;;;;;;;16.50;2.22;;;10.10;99.90;;;;;;5049492;28;20017;-84
2023/01/11 10:10:35;;;;;;;15.98;2.28;;;10.80;99.90;;;;;;5056450;28;20025;-85
2023/01/11 10:13:21;;;;;;;12.60;1.80;;;11.40;99.90;;;;;;5055067;28;20370;-84
2023/01/11 10:16:31;;;;;;;10.52;1.40;;;12.00;99.90;;;;;;5053824;28;20035;-82
2023/01/11 10:19:15;;;;;;;12.25;1.98;;;12.70;99.90;;;;;;5052130;28;20040;-83
2023/01/11 10:22:00;;;;;;;12.07;1.75;;;13.30;99.90;;;;;;5053540;28;20028;-83
2023/01/11 10:24:29;;;;;;;13.35;2.10;;;13.70;99.90;;;;;;5054785;28;20037;-83
2023/01/11 10:26:58;;;;;;;13.27;1.88;;;14.10;99.90;;;;;;5056025;28;20029;-84
2023/01/11 10:32:52;;;;;;;12.57;2.00;;;14.60;99.90;;;;;;5056317;28;20025;-83
2023/01/11 10:38:28;;;;;;;21.55;3.08;;;14.70;99.90;;;;;;5035943;28;20030;-84
2023/01/11 10:41:14;;;;;;;14.55;2.63;;;14.60;99.90;;;;;;5035907;28;20474;-83
2023/01/11 10:43:45;;;;;;;17.98;3.67;;;14.50;99.90;;;;;;5036177;28;20026;-83
2023/01/11 10:46:20;;;;;;;15.75;2.22;;;14.30;99.10;;;;;;5034681;28;20022;-83
2023/01/11 10:48:46;;;;;;;22.85;3.55;;;14.10;98.90;;;;;;5049027;28;20095;-83
2023/01/11 10:51:28;;;;;;;15.48;2.03;;;13.80;97.70;;;;;;5054534;28;20061;-83
2023/01/11 10:54:12;;;;;;;13.45;2.05;;;13.70;98.20;;;;;;5055323;28;20484;-84
2023/01/11 10:56:50;;;;;;;18.48;3.50;;;13.50;98.40;;;;;;5054996;28;20440;-84
2023/01/11 10:59:49;;;;;;;20.13;2.30;;;13.50;98.00;;;;;;5052930;28;20480;-83
2023/01/11 11:02:32;;;;;;;11.10;1.88;;;13.50;98.20;;;;;;5052577;28;20029;-86
2023/01/11 11:05:22;;;;;;;15.25;2.35;;;13.40;96.80;;;;;;5052553;28;20465;-86
2023/01/11 11:08:26;;;;;;;16.02;2.30;;;13.30;97.20;;;;;;5054025;28;20017;-86
2023/01/11 11:11:04;;;;;;;18.15;2.22;;;13.30;96.70;;;;;;5053488;28;20104;-87
2023/01/11 11:13:59;;;;;;;16.92;2.42;;;13.30;95.90;;;;;;5050912;28;20021;-83
2023/01/11 11:16:27;;;;;;;;;;;13.30;95.90;;;;;;5051122;28;20044;-83
2023/01/11 11:18:57;;;;;;;15.20;1.67;;;13.30;96.10;;;;;;5063687;28;19930;-82
2023/01/11 11:21:30;;;;;;;16.60;2.60;;;13.40;96.30;;;;;;5078198;28;20051;-82
2023/01/11 11:24:14;;;;;;;15.02;2.35;;;13.50;95.50;;;;;;5051580;28;20067;-83
2023/01/11 11:26:43;;;;;;;15.50;2.08;;;13.60;94.80;;;;;;5053575;28;20397;-84
2023/01/11 11:29:18;;;;;;;14.20;2.17;;;13.70;94.90;;;;;;5087309;28;20103;-85
2023/01/11 11:31:48;;;;;;;14.48;2.17;;;13.80;93.70;;;;;;5087417;28;20017;-89
2023/01/11 11:34:19;;;;;;;14.40;2.63;;;13.90;93.10;;;;;;5070883;28;20021;-83
2023/01/11 11:36:48;;;;;;;11.32;2.08;;;13.90;93.40;;;;;;5087169;28;20051;-83
2023/01/11 11:39:27;;;;;;;13.50;2.15;;;13.90;92.80;;;;;;5087242;28;20017;-85
2023/01/11 11:41:56;;;;;;;13.82;2.20;;;13.80;92.00;;;;;;5087171;28;20035;-85
2023/01/11 11:44:27;;;;;;;14.25;1.95;;;13.70;92.40;;;;;;5087223;28;20043;-84
2023/01/11 11:46:56;;;;;;;11.52;1.83;;;13.50;91.60;;;;;;5087321;28;20027;-83
2023/01/11 11:49:22;;;;;;;14.27;1.92;;;13.40;92.10;;;;;;5036782;28;20358;-83
2023/01/11 11:51:49;;;;;;;13.20;2.28;;;13.40;92.50;;;;;;5066786;28;20033;-83
2023/01/11 11:54:18;;;;;;;12.85;1.77;;;13.40;92.30;;;;;;5070231;28;20025;-85
2023/01/11 11:56:44;;;;;;;16.85;1.73;;;13.50;92.30;;;;;;5053210;28;20477;-85
2023/01/11 11:59:14;;;;;;;11.70;1.92;;;13.50;92.10;;;;;;5069842;28;20164;-84
2023/01/11 12:01:45;;;;;;;12.98;1.58;;;13.60;92.30;;;;;;5087471;28;20354;-84
2023/01/11 12:04:28;;;;;;;14.20;2.13;;;13.80;91.50;;;;;;5086690;28;20021;-82
2023/01/11 12:07:20;;;;;;;11.70;2.63;;;14.00;91.80;;;;;;5086602;28;20025;-78
2023/01/11 12:09:49;;;;;;;12.98;2.25;;;14.20;89.30;;;;;;5054072;28;20275;-80
2023/01/11 12:12:17;;;;;;;12.05;2.20;;;14.40;88.80;;;;;;5081729;28;20036;-78
2023/01/11 12:15:15;;;;;;;12.35;2.00;;;14.50;88.30;;;;;;5032328;28;20024;-79
2023/01/11 12:17:41;;;;;;;13.60;2.10;;;14.60;87.70;;;;;;5066862;28;20029;-78
2023/01/11 12:20:29;;;;;;;10.82;1.90;;;14.60;87.00;;;;;;5032498;28;20033;-78
2023/01/11 12:23:15;;;;;;;17.45;2.22;;;14.50;87.00;;;;;;5032758;28;20478;-78
2023/01/11 12:26:04;;;;;;;12.65;2.35;;;14.40;86.90;;;;;;5015942;28;20561;-77
2023/01/11 12:28:50;;;;;;;9.75;1.80;;;14.50;87.50;;;;;;5065818;28;20028;-78
2023/01/11 12:32:00;;;;;;;10.82;1.90;;;14.50;86.60;;;;;;5032477;28;20060;-78
2023/01/11 12:34:54;;;;;;;18.63;2.22;;;14.40;85.60;;;;;;5065838;28;20366;-78
2023/01/11 12:37:46;;;;;;;17.83;3.05;;;14.10;83.70;;;;;;5032688;28;20025;-77
2023/01/11 12:40:39;;;;;;;16.25;3.33;;;13.60;82.90;;;;;;5065878;28;20037;-79
2023/01/11 12:43:14;;;;;;;12.57;1.77;;;13.10;82.60;;;;;;5065455;28;20036;-77
2023/01/11 12:45:46;;;;;;;15.68;2.45;;;12.80;84.30;;;;;;5065594;28;20535;-77
2023/01/11 12:48:49;;;;;;;15.73;2.30;;;12.70;84.50;;;;;;5067781;28;20755;-78
2023/01/11 12:51:36;;;;;;;17.10;2.13;;;12.50;85.10;;;;;;5051079;28;20465;-78
2023/01/11 12:54:11;;;;;;;14.95;2.13;;;12.40;86.00;;;;;;5032754;28;20478;-85
2023/01/11 12:57:11;;;;;;;19.42;2.83;;;12.60;85.90;;;;;;5065830;28;20064;-85
2023/01/11 13:00:16;;;;;;;16.05;2.17;;;13.00;87.10;;;;;;5033578;28;20056;-84
2023/01/11 13:03:08;;;;;;;17.98;2.55;;;13.60;87.70;;;;;;5034961;28;20021;-87
2023/01/11 13:05:54;;;;;;;14.43;2.88;;;14.00;82.00;;;;;;5033328;28;20030;-84
2023/01/11 13:09:01;;;;;;;15.85;2.20;;;14.20;81.50;;;;;;5032202;28;20091;-86
2023/01/11 13:11:47;;;;;;;14.50;2.40;;;14.20;79.10;;;;;;5014660;28;20036;-86
2023/01/11 13:14:32;;;;;;;11.75;1.90;;;14.00;79.80;;;;;;5031021;28;20381;-86
2023/01/11 13:17:03;;;;;;;;;;;13.80;79.90;;;;;;5034288;28;20489;-87
2023/01/11 13:19:42;;;;;;;14.13;1.90;;;13.70;79.30;;;;;;5066277;28;19909;-88
2023/01/11 13:22:17;;;;;;;13.40;2.20;;;13.50;80.20;;;;;;5032165;28;20022;-86
2023/01/11 13:24:49;;;;;;;14.20;3.08;;;13.30;80.50;;;;;;5031808;28;20041;-86
2023/01/11 13:27:23;;;;;;;14.77;2.10;;;13.20;81.20;;;;;;5032671;28;20022;-85
2023/01/11 13:29:55;;;;;;;11.18;2.17;;;13.30;82.50;;;;;;5036020;28;20039;-87